createdAt,value
2022-11-29T00:01:23.472Z,23.63
2022-11-29T00:03:50.790Z,23.08
2022-11-29T00:06:23.332Z,23.67
2022-11-29T00:08:50.570Z,23.25
2022-11-29T00:11:38.911Z,21.52
2022-11-29T00:14:08.001Z,23.83
2022-11-29T00:16:36.487Z,24.83
2022-11-29T00:19:03.665Z,24.55
2022-11-29T00:21:30.406Z,23.25
2022-11-29T00:23:57.259Z,24.15
2022-11-29T00:26:24.412Z,23.58
2022-11-29T00:28:51.797Z,25.83
2022-11-29T00:31:27.934Z,24.88
2022-11-29T00:33:54.657Z,24.55
2022-11-29T00:36:21.459Z,24.67
2022-11-29T00:38:48.188Z,25.52
2022-11-29T00:41:15.118Z,25.05
2022-11-29T00:43:42.083Z,24.73
2022-11-29T00:46:09.744Z,26.45
2022-11-29T00:48:37.186Z,26.58
2022-11-29T00:51:05.280Z,25.73
2022-11-29T00:53:33.279Z,25.92
2022-11-29T00:55:59.946Z,26.45
2022-11-29T00:58:26.820Z,24.65
2022-11-29T01:00:54.242Z,25.15
2022-11-29T01:03:21.440Z,25.65
2022-11-29T01:05:48.726Z,25.15
2022-11-29T01:08:15.851Z,26.20
2022-11-29T01:10:42.627Z,25.60
2022-11-29T01:13:09.972Z,26.42
2022-11-29T01:15:37.064Z,25.77
2022-11-29T01:18:03.950Z,25.55
2022-11-29T01:20:30.708Z,26.20
2022-11-29T01:22:57.526Z,26.90
2022-11-29T01:25:24.424Z,27.10
2022-11-29T01:27:51.124Z,27.17
2022-11-29T01:30:17.900Z,25.63
2022-11-29T01:32:44.646Z,26.55
2022-11-29T01:35:11.373Z,26.77
2022-11-29T01:37:38.175Z,26.33
2022-11-29T01:40:05.549Z,25.30
2022-11-29T01:42:32.243Z,25.25
2022-11-29T01:45:19.643Z,24.77
2022-11-29T01:47:47.653Z,25.70
2022-11-29T01:50:14.769Z,25.70
2022-11-29T01:52:42.049Z,25.42
2022-11-29T01:55:10.190Z,25.35
2022-11-29T01:57:40.259Z,26.25
2022-11-29T02:02:47.287Z,24.63
2022-11-29T02:05:16.889Z,25.27
2022-11-29T02:07:46.355Z,25.48
2022-11-29T02:10:15.834Z,26.10
2022-11-29T02:13:06.269Z,25.70
2022-11-29T02:15:50.484Z,24.38
2022-11-29T02:18:48.752Z,23.40
2022-11-29T02:21:45.202Z,25.38
2022-11-29T02:24:45.452Z,25.17
2022-11-29T02:27:42.967Z,24.52
2022-11-29T02:30:27.804Z,23.42
2022-11-29T02:33:03.458Z,25.02
2022-11-29T02:35:52.044Z,25.10
2022-11-29T02:38:43.066Z,23.90
2022-11-29T02:41:41.693Z,22.58
2022-11-29T02:44:08.532Z,21.88
2022-11-29T02:46:35.199Z,23.00
2022-11-29T02:49:20.830Z,23.65
2022-11-29T02:51:55.702Z,22.50
2022-11-29T02:54:49.241Z,22.92
2022-11-29T02:57:21.779Z,23.30
2022-11-29T03:00:00.079Z,22.67
2022-11-29T03:03:00.150Z,22.73
2022-11-29T03:05:42.909Z,22.58
2022-11-29T03:08:15.490Z,21.65
2022-11-29T03:10:49.789Z,21.90
2022-11-29T03:13:44.136Z,21.60
2022-11-29T03:16:37.184Z,22.20
2022-11-29T03:19:32.892Z,21.60
2022-11-29T03:22:17.779Z,22.05
2022-11-29T03:24:54.721Z,21.42
2022-11-29T03:27:28.835Z,22.60
2022-11-29T03:30:00.649Z,22.80
2022-11-29T03:32:43.023Z,21.65
2022-11-29T03:35:15.868Z,22.25
2022-11-29T03:37:55.462Z,22.13
2022-11-29T03:40:50.137Z,21.73
2022-11-29T03:43:41.722Z,21.65
2022-11-29T03:46:35.269Z,23.08
2022-11-29T03:49:35.757Z,22.38
2022-11-29T03:52:24.798Z,24.08
2022-11-29T03:55:03.286Z,22.75
2022-11-29T03:57:51.371Z,23.02
2022-11-29T04:00:19.007Z,22.33
2022-11-29T04:03:04.341Z,22.48
2022-11-29T04:05:36.804Z,22.02
2022-11-29T04:08:17.828Z,22.30
2022-11-29T04:11:15.525Z,22.27
2022-11-29T04:14:13.955Z,23.73
2022-11-29T04:17:18.180Z,21.58
2022-11-29T04:19:59.938Z,21.92
2022-11-29T04:22:33.157Z,23.30
2022-11-29T04:25:23.050Z,20.65
2022-11-29T04:28:26.920Z,20.80
2022-11-29T04:31:11.464Z,22.00
2022-11-29T04:34:23.242Z,21.17
2022-11-29T04:37:39.539Z,21.02
2022-11-29T04:40:33.902Z,19.83
2022-11-29T04:43:16.051Z,21.48
2022-11-29T04:45:42.684Z,21.00
2022-11-29T04:48:40.158Z,20.45
2022-11-29T04:51:25.855Z,19.33
2022-11-29T04:54:09.348Z,20.67
2022-11-29T04:57:24.081Z,21.25
2022-11-29T04:59:53.717Z,20.48
2022-11-29T05:02:54.247Z,21.08
2022-11-29T05:05:42.602Z,20.17
2022-11-29T05:08:38.764Z,20.02
2022-11-29T05:11:05.392Z,20.33
2022-11-29T05:13:58.719Z,20.42
2022-11-29T05:16:46.567Z,21.20
2022-11-29T05:19:34.359Z,20.45
2022-11-29T05:22:34.328Z,21.98
2022-11-29T05:25:42.323Z,21.10
2022-11-29T05:28:25.989Z,21.73
2022-11-29T05:31:26.903Z,23.05
2022-11-29T05:34:03.796Z,22.75
2022-11-29T05:36:45.295Z,21.90
2022-11-29T05:39:20.977Z,22.05
2022-11-29T05:42:01.487Z,22.40
2022-11-29T05:44:37.275Z,22.17
2022-11-29T05:47:10.264Z,21.40
2022-11-29T05:50:04.149Z,21.80
2022-11-29T05:52:50.719Z,23.33
2022-11-29T05:55:41.099Z,21.48
2022-11-29T05:58:41.745Z,21.17
2022-11-29T06:01:20.528Z,21.35
2022-11-29T06:04:10.322Z,20.95
2022-11-29T06:06:42.973Z,21.13
2022-11-29T06:09:13.715Z,21.50
2022-11-29T06:11:55.063Z,20.83
2022-11-29T06:14:49.916Z,19.60
2022-11-29T06:17:25.604Z,19.75
2022-11-29T06:20:26.514Z,19.73
2022-11-29T06:23:31.055Z,21.58
2022-11-29T06:26:09.747Z,21.23
2022-11-29T06:28:47.124Z,21.83
2022-11-29T06:31:38.663Z,22.65
2022-11-29T06:34:20.676Z,21.83
2022-11-29T06:37:15.677Z,20.70
2022-11-29T06:39:42.730Z,20.90
2022-11-29T06:42:09.434Z,22.38
2022-11-29T06:44:36.504Z,20.83
2022-11-29T06:47:08.969Z,21.45
2022-11-29T06:49:49.334Z,22.17
2022-11-29T06:52:34.837Z,21.00
2022-11-29T06:55:08.237Z,20.80
2022-11-29T06:57:52.810Z,20.70
2022-11-29T07:00:28.404Z,20.55
2022-11-29T07:02:55.258Z,21.15
2022-11-29T07:05:31.953Z,21.55
2022-11-29T07:08:04.247Z,21.85
2022-11-29T07:10:33.455Z,21.15
2022-11-29T07:13:00.586Z,21.87
2022-11-29T07:15:28.256Z,22.02
2022-11-29T07:18:24.222Z,20.52
2022-11-29T07:21:18.045Z,20.42
2022-11-29T07:24:05.075Z,20.15
2022-11-29T07:26:55.159Z,20.80
2022-11-29T07:30:02.524Z,19.80
2022-11-29T07:32:47.302Z,19.63
2022-11-29T07:35:29.536Z,20.25
2022-11-29T07:37:57.583Z,20.00
2022-11-29T07:40:37.559Z,21.23
2022-11-29T07:43:38.779Z,20.23
2022-11-29T07:46:05.761Z,20.42
2022-11-29T07:48:32.505Z,20.00
2022-11-29T07:51:00.749Z,20.83
2022-11-29T07:53:27.588Z,19.55
2022-11-29T07:55:54.821Z,19.67
2022-11-29T07:58:21.677Z,20.50
2022-11-29T08:00:48.407Z,20.52
2022-11-29T08:03:15.193Z,21.42
2022-11-29T08:05:46.292Z,21.45
2022-11-29T08:08:13.567Z,20.27
2022-11-29T08:10:40.384Z,20.70
2022-11-29T08:13:07.116Z,20.52
2022-11-29T08:15:37.005Z,20.67
2022-11-29T08:18:04.017Z,20.55
2022-11-29T08:20:30.599Z,21.42
2022-11-29T08:23:00.467Z,19.48
2022-11-29T08:25:28.242Z,22.30
2022-11-29T08:27:56.110Z,21.55
2022-11-29T08:30:23.588Z,21.17
2022-11-29T08:32:51.775Z,19.65
2022-11-29T08:35:20.210Z,19.65
2022-11-29T08:37:47.158Z,19.73
2022-11-29T08:40:15.103Z,19.88
2022-11-29T08:42:41.869Z,20.58
2022-11-29T08:45:09.934Z,20.25
2022-11-29T08:47:38.070Z,20.88
2022-11-29T08:50:16.524Z,20.08
2022-11-29T08:53:07.261Z,19.10
2022-11-29T08:55:40.358Z,20.38
2022-11-29T08:58:12.392Z,22.83
2022-11-29T09:00:39.633Z,19.63
2022-11-29T09:03:25.895Z,19.95
2022-11-29T09:05:53.716Z,19.17
2022-11-29T09:08:20.486Z,19.85
2022-11-29T09:10:47.589Z,20.50
2022-11-29T09:13:14.325Z,19.77
2022-11-29T09:15:43.356Z,20.83
2022-11-29T09:18:10.326Z,19.63
2022-11-29T09:20:37.093Z,19.70
2022-11-29T09:23:04.399Z,19.63
2022-11-29T09:25:31.112Z,20.10
2022-11-29T09:28:01.844Z,19.65
2022-11-29T09:30:32.017Z,19.80
2022-11-29T09:33:05.130Z,20.63
2022-11-29T09:35:33.030Z,22.10
2022-11-29T09:38:00.316Z,21.42
2022-11-29T09:40:52.768Z,19.23
2022-11-29T09:43:38.081Z,21.05
2022-11-29T09:46:27.537Z,19.77
2022-11-29T09:49:29.514Z,20.30
2022-11-29T09:52:13.642Z,20.63
2022-11-29T09:55:10.176Z,20.48
2022-11-29T09:57:38.623Z,20.65
2022-11-29T10:00:14.806Z,20.27
2022-11-29T10:02:47.902Z,21.63
2022-11-29T10:05:24.200Z,20.70
2022-11-29T10:07:55.696Z,20.52
2022-11-29T10:10:40.591Z,20.35
2022-11-29T10:13:16.768Z,21.65
2022-11-29T10:15:45.781Z,20.98
2022-11-29T10:18:32.466Z,22.05
2022-11-29T10:21:06.895Z,21.08
2022-11-29T10:23:42.633Z,21.02
2022-11-29T10:26:11.964Z,21.35
2022-11-29T10:28:45.027Z,19.88
2022-11-29T10:31:43.992Z,19.98
2022-11-29T10:34:18.894Z,20.08
2022-11-29T10:37:02.769Z,19.90
2022-11-29T10:39:37.337Z,20.05
2022-11-29T10:42:25.970Z,19.98
2022-11-29T10:44:52.788Z,19.27
2022-11-29T10:47:19.460Z,19.60
2022-11-29T10:49:46.211Z,20.15
2022-11-29T10:52:23.118Z,18.83
2022-11-29T10:54:57.881Z,20.25
2022-11-29T10:57:24.607Z,19.77
2022-11-29T11:00:09.901Z,20.73
2022-11-29T11:02:37.806Z,19.85
2022-11-29T11:05:13.341Z,20.60
2022-11-29T11:07:40.713Z,20.45
2022-11-29T11:10:37.368Z,20.20
2022-11-29T11:13:21.010Z,20.50
2022-11-29T11:15:48.024Z,24.15
2022-11-29T11:18:24.201Z,22.42
2022-11-29T11:20:57.186Z,21.65
2022-11-29T11:23:27.407Z,22.00
2022-11-29T11:26:00.965Z,22.67
2022-11-29T11:28:32.348Z,19.63
2022-11-29T11:31:05.007Z,19.23
2022-11-29T11:33:35.285Z,19.30
2022-11-29T11:36:03.869Z,20.13
2022-11-29T11:38:31.596Z,18.98
2022-11-29T11:41:20.459Z,18.83
2022-11-29T11:44:14.966Z,18.67
2022-11-29T11:46:48.312Z,19.27
2022-11-29T11:49:32.525Z,20.40
2022-11-29T11:52:00.879Z,19.30
2022-11-29T11:54:29.527Z,18.98
2022-11-29T11:56:56.657Z,19.92
2022-11-29T11:59:26.675Z,20.58
2022-11-29T12:04:25.753Z,20.05
2022-11-29T12:07:01.857Z,20.00
2022-11-29T12:09:33.897Z,18.85
2022-11-29T12:12:19.384Z,19.05
2022-11-29T12:15:00.715Z,18.65
2022-11-29T12:17:36.737Z,19.70
2022-11-29T12:20:24.986Z,21.02
2022-11-29T12:23:12.595Z,19.55
2022-11-29T12:25:52.494Z,18.95
2022-11-29T12:28:21.146Z,19.83
2022-11-29T12:30:57.171Z,21.35
2022-11-29T12:33:49.749Z,19.48
2022-11-29T12:36:22.286Z,21.08
2022-11-29T12:39:03.662Z,20.08
2022-11-29T12:41:42.337Z,20.30
2022-11-29T12:44:40.342Z,18.15
2022-11-29T12:47:37.909Z,19.20
2022-11-29T12:50:26.602Z,19.40
2022-11-29T12:53:11.307Z,19.23
2022-11-29T12:55:51.896Z,19.85
2022-11-29T12:58:32.075Z,18.77
2022-11-29T13:01:01.853Z,20.02
2022-11-29T13:03:49.990Z,19.63
2022-11-29T13:06:19.669Z,19.58
2022-11-29T13:09:05.032Z,17.67
2022-11-29T13:11:48.324Z,19.60
2022-11-29T13:14:42.163Z,18.65
2022-11-29T13:17:14.970Z,20.17
2022-11-29T13:19:53.722Z,19.17
2022-11-29T13:22:26.570Z,18.33
2022-11-29T13:25:13.062Z,20.02
2022-11-29T13:27:46.317Z,18.33
2022-11-29T13:30:16.551Z,18.55
2022-11-29T13:33:05.319Z,19.77
2022-11-29T13:35:49.032Z,18.83
2022-11-29T13:38:25.075Z,18.95
2022-11-29T13:41:02.278Z,18.55
2022-11-29T13:43:39.349Z,18.27
2022-11-29T13:46:44.035Z,18.65
2022-11-29T13:49:57.249Z,17.52
2022-11-29T13:52:41.005Z,18.13
2022-11-29T13:55:11.438Z,18.55
2022-11-29T13:58:14.759Z,17.50
2022-11-29T14:00:44.143Z,19.30
2022-11-29T14:03:24.151Z,18.45
2022-11-29T14:09:02.363Z,19.40
2022-11-29T14:11:43.044Z,19.88
2022-11-29T14:14:26.440Z,19.88
2022-11-29T14:16:58.949Z,18.67
2022-11-29T14:19:34.235Z,19.02
2022-11-29T14:22:07.250Z,18.38
2022-11-29T14:24:36.631Z,18.63
2022-11-29T14:27:06.012Z,18.92
2022-11-29T14:29:51.078Z,18.55
2022-11-29T14:32:46.194Z,18.85
2022-11-29T14:35:13.275Z,19.48
2022-11-29T14:37:47.542Z,19.15
2022-11-29T14:40:23.458Z,19.58
2022-11-29T14:42:51.049Z,19.63
2022-11-29T14:45:36.039Z,18.98
2022-11-29T14:48:03.410Z,24.50
2022-11-29T14:50:39.801Z,28.52
2022-11-29T14:53:27.540Z,28.23
2022-11-29T14:56:29.051Z,23.92
2022-11-29T14:59:33.084Z,21.00
2022-11-29T15:02:07.757Z,20.48
2022-11-29T15:04:36.621Z,20.02
2022-11-29T15:07:05.895Z,18.42
2022-11-29T15:09:34.109Z,20.42
2022-11-29T15:12:17.144Z,21.40
2022-11-29T15:15:10.212Z,18.83
2022-11-29T15:17:45.903Z,20.02
2022-11-29T15:20:46.305Z,19.50
2022-11-29T15:23:18.505Z,20.02
2022-11-29T15:25:53.661Z,19.05
2022-11-29T15:28:26.759Z,20.13
2022-11-29T15:31:06.279Z,18.65
2022-11-29T15:33:36.157Z,18.85
2022-11-29T15:36:08.573Z,18.48
2022-11-29T15:38:44.448Z,18.08
2022-11-29T15:41:27.435Z,18.95
2022-11-29T15:44:02.543Z,18.65
2022-11-29T15:46:32.149Z,19.08
2022-11-29T15:49:25.071Z,19.70
2022-11-29T15:52:08.408Z,19.17
2022-11-29T15:54:41.234Z,19.02
2022-11-29T15:57:11.106Z,20.38
2022-11-29T15:59:48.915Z,21.42
2022-11-29T16:02:24.340Z,20.58
2022-11-29T16:04:55.899Z,20.05
2022-11-29T16:07:24.669Z,20.58
2022-11-29T16:10:14.969Z,22.27
2022-11-29T16:12:59.235Z,23.33
2022-11-29T16:15:25.869Z,22.70
2022-11-29T16:17:52.600Z,21.65
2022-11-29T16:20:24.333Z,22.77
2022-11-29T16:23:13.281Z,20.75
2022-11-29T16:26:06.369Z,22.40
2022-11-29T16:28:36.372Z,24.42
2022-11-29T16:31:04.877Z,22.60
2022-11-29T16:33:32.350Z,22.63
2022-11-29T16:36:23.983Z,20.63
2022-11-29T16:38:54.236Z,20.80
2022-11-29T16:41:32.343Z,21.05
2022-11-29T16:44:03.252Z,22.58
2022-11-29T16:46:35.965Z,23.08
2022-11-29T16:49:35.915Z,22.70
2022-11-29T16:52:04.326Z,20.90
2022-11-29T16:54:34.077Z,21.42
2022-11-29T16:57:05.408Z,22.50
2022-11-29T16:59:32.570Z,22.02
2022-11-29T17:01:59.439Z,23.23
2022-11-29T17:04:26.616Z,21.77
2022-11-29T17:06:55.143Z,22.10
2022-11-29T17:09:27.915Z,22.73
2022-11-29T17:11:55.702Z,22.48
2022-11-29T17:14:23.106Z,22.17
2022-11-29T17:16:50.581Z,22.27
2022-11-29T17:19:18.535Z,22.42
2022-11-29T17:21:45.548Z,21.45
2022-11-29T17:24:15.825Z,22.13
2022-11-29T17:26:43.503Z,24.17
2022-11-29T17:29:11.918Z,22.73
2022-11-29T17:31:38.992Z,23.63
2022-11-29T17:34:06.516Z,24.70
2022-11-29T17:36:33.455Z,24.23
2022-11-29T17:39:00.878Z,24.30
2022-11-29T17:41:28.701Z,22.88
2022-11-29T17:43:56.679Z,23.95
2022-11-29T17:46:27.561Z,23.85
2022-11-29T17:48:55.718Z,23.85
2022-11-29T17:54:11.275Z,24.02
2022-11-29T17:56:37.961Z,22.58
2022-11-29T17:59:05.216Z,23.88
2022-11-29T18:01:34.717Z,24.05
2022-11-29T18:04:03.207Z,26.08
2022-11-29T18:06:35.254Z,25.25
2022-11-29T18:09:06.083Z,26.80
2022-11-29T18:11:48.013Z,26.42
2022-11-29T18:14:19.188Z,23.73
2022-11-29T18:16:46.029Z,24.95
2022-11-29T18:19:15.807Z,26.48
2022-11-29T18:21:42.851Z,27.23
2022-11-29T18:24:10.311Z,27.58
2022-11-29T18:26:39.174Z,28.77
2022-11-29T18:29:06.688Z,25.55
2022-11-29T18:31:36.373Z,29.05
2022-11-29T18:34:11.909Z,28.60
2022-11-29T18:36:44.966Z,30.63
2022-11-29T18:39:20.079Z,27.95
2022-11-29T18:41:48.717Z,30.80
2022-11-29T18:44:17.492Z,25.17
2022-11-29T18:46:45.433Z,29.02
2022-11-29T18:49:14.801Z,28.40
2022-11-29T18:51:44.780Z,28.10
2022-11-29T18:54:12.918Z,27.00
2022-11-29T18:56:40.114Z,27.48
2022-11-29T18:59:10.476Z,26.80
2022-11-29T19:01:41.305Z,26.35
2022-11-29T19:04:11.025Z,26.77
2022-11-29T19:06:39.934Z,26.60
2022-11-29T19:09:11.973Z,27.87
2022-11-29T19:11:38.964Z,27.17
2022-11-29T19:14:11.445Z,26.52
2022-11-29T19:16:43.470Z,27.52
2022-11-29T19:19:11.139Z,28.55
2022-11-29T19:21:39.915Z,30.45
2022-11-29T19:24:13.933Z,28.92
2022-11-29T19:26:41.748Z,28.30
2022-11-29T19:29:08.405Z,27.48
2022-11-29T19:31:35.111Z,29.75
2022-11-29T19:34:01.793Z,31.67
2022-11-29T19:36:30.631Z,30.67
2022-11-29T19:39:00.127Z,31.13
2022-11-29T19:41:32.457Z,30.13
2022-11-29T19:44:01.991Z,28.80
2022-11-29T19:46:35.274Z,30.30
2022-11-29T19:49:03.501Z,31.90
2022-11-29T19:51:30.955Z,30.17
2022-11-29T19:54:00.340Z,30.73
2022-11-29T19:56:28.266Z,30.25
2022-11-29T19:58:55.364Z,29.60
2022-11-29T20:01:37.905Z,31.75
2022-11-29T20:04:07.498Z,30.88
2022-11-29T20:06:34.696Z,32.30
2022-11-29T20:09:02.196Z,30.73
2022-11-29T20:11:29.225Z,33.33
2022-11-29T20:14:01.205Z,32.97
2022-11-29T20:16:29.663Z,32.58
2022-11-29T20:18:56.998Z,33.67
2022-11-29T20:21:27.325Z,35.67
2022-11-29T20:23:59.505Z,35.13
2022-11-29T20:26:27.724Z,34.85
2022-11-29T20:28:54.632Z,34.22
2022-11-29T20:31:23.312Z,36.55
2022-11-29T20:33:52.869Z,34.42
2022-11-29T20:36:38.613Z,33.90
2022-11-29T20:39:26.327Z,33.58
2022-11-29T20:41:52.925Z,36.33
2022-11-29T20:44:44.284Z,35.33
2022-11-29T20:47:22.511Z,35.30
2022-11-29T20:49:49.414Z,34.60
2022-11-29T20:52:37.598Z,35.00
2022-11-29T20:55:05.050Z,33.13
2022-11-29T20:57:31.856Z,34.75
2022-11-29T21:00:00.058Z,33.10
2022-11-29T21:02:26.703Z,34.00
2022-11-29T21:04:53.364Z,32.95
2022-11-29T21:07:20.139Z,33.42
2022-11-29T21:09:46.851Z,33.65
2022-11-29T21:12:13.974Z,34.33
2022-11-29T21:14:40.955Z,31.73
2022-11-29T21:17:08.858Z,34.20
2022-11-29T21:19:36.406Z,35.13
2022-11-29T21:22:26.474Z,33.33
2022-11-29T21:27:39.166Z,32.20
2022-11-29T21:30:07.104Z,32.80
2022-11-29T21:32:34.326Z,33.33
2022-11-29T21:35:00.985Z,32.92
2022-11-29T21:37:30.821Z,32.72
2022-11-29T21:39:57.696Z,32.40
2022-11-29T21:42:24.494Z,34.13
2022-11-29T21:44:51.155Z,32.65
2022-11-29T21:47:17.816Z,33.22
2022-11-29T21:49:45.012Z,32.03
2022-11-29T21:52:11.718Z,32.22
2022-11-29T21:54:39.301Z,32.35
2022-11-29T21:57:06.160Z,31.98
2022-11-29T21:59:32.914Z,30.55
2022-11-29T22:01:59.845Z,33.40
2022-11-29T22:04:26.869Z,32.03
2022-11-29T22:06:53.585Z,32.45
2022-11-29T22:09:20.491Z,32.83
2022-11-29T22:11:47.166Z,32.63
2022-11-29T22:14:18.885Z,32.05
2022-11-29T22:16:54.250Z,31.92
2022-11-29T22:19:22.216Z,31.13
2022-11-29T22:21:52.040Z,30.63
2022-11-29T22:24:21.608Z,31.23
2022-11-29T22:26:49.478Z,32.17
2022-11-29T22:29:16.668Z,30.92
2022-11-29T22:31:45.727Z,31.73
2022-11-29T22:34:13.191Z,31.63
2022-11-29T22:36:41.003Z,32.67
2022-11-29T22:39:09.120Z,30.60
2022-11-29T22:41:38.355Z,30.90
2022-11-29T22:44:05.633Z,29.98
2022-11-29T22:46:33.015Z,31.15
2022-11-29T22:49:00.647Z,30.10
2022-11-29T22:51:32.383Z,31.20
2022-11-29T22:54:01.449Z,30.00
2022-11-29T22:56:31.448Z,31.77
2022-11-29T23:01:27.331Z,30.23
2022-11-29T23:03:56.502Z,31.52
2022-11-29T23:06:25.359Z,30.98
2022-11-29T23:08:54.589Z,30.67
2022-11-29T23:11:26.880Z,30.40
2022-11-29T23:13:54.389Z,28.30
2022-11-29T23:16:24.619Z,30.23
2022-11-29T23:18:52.422Z,30.08
2022-11-29T23:21:25.589Z,32.25
2022-11-29T23:23:56.332Z,30.75
2022-11-29T23:26:26.441Z,30.08
2022-11-29T23:28:54.177Z,30.77
2022-11-29T23:31:21.803Z,31.17
2022-11-29T23:33:48.952Z,30.77
2022-11-29T23:36:16.896Z,29.77
2022-11-29T23:38:43.958Z,30.65
2022-11-29T23:41:12.898Z,30.70
2022-11-29T23:43:40.953Z,29.67
2022-11-29T23:46:15.556Z,29.30
2022-11-29T23:48:42.981Z,29.20
2022-11-29T23:51:09.644Z,30.00
2022-11-29T23:53:36.577Z,31.13
2022-11-29T23:56:06.273Z,30.38
2022-11-29T23:58:34.028Z,30.80
